sensor_id;sensor_type;location;lat;lon;timestamp;temperature;humidity
39931;DHT22;26635;-35.248;149.138;2023-03-14T00:00:27;21.20;66.20
39931;DHT22;26635;-35.248;149.138;2023-03-14T00:03:00;21.40;66.60
39931;DHT22;26635;-35.248;149.138;2023-03-14T00:05:31;21.50;66.10
39931;DHT22;26635;-35.248;149.138;2023-03-14T00:08:02;21.50;64.60
39931;DHT22;26635;-35.248;149.138;2023-03-14T00:10:33;21.50;64.00
39931;DHT22;26635;-35.248;149.138;2023-03-14T00:13:04;21.50;63.80
39931;DHT22;26635;-35.248;149.138;2023-03-14T00:15:35;21.50;63.80
39931;DHT22;26635;-35.248;149.138;2023-03-14T00:18:05;21.40;63.70
39931;DHT22;26635;-35.248;149.138;2023-03-14T00:20:36;21.40;64.30
39931;DHT22;26635;-35.248;149.138;2023-03-14T00:23:10;21.40;63.80
39931;DHT22;26635;-35.248;149.138;2023-03-14T00:25:40;21.40;64.20
39931;DHT22;26635;-35.248;149.138;2023-03-14T00:28:11;21.40;64.40
39931;DHT22;26635;-35.248;149.138;2023-03-14T00:30:42;21.40;64.90
39931;DHT22;26635;-35.248;149.138;2023-03-14T00:33:12;21.60;65.20
39931;DHT22;26635;-35.248;149.138;2023-03-14T00:35:43;21.70;64.90
39931;DHT22;26635;-35.248;149.138;2023-03-14T00:38:14;22.00;65.20
39931;DHT22;26635;-35.248;149.138;2023-03-14T00:40:53;22.20;64.70
39931;DHT22;26635;-35.248;149.138;2023-03-14T00:43:24;22.40;63.20
39931;DHT22;26635;-35.248;149.138;2023-03-14T00:45:55;22.60;62.30
39931;DHT22;26635;-35.248;149.138;2023-03-14T00:48:28;22.60;62.10
39931;DHT22;26635;-35.248;149.138;2023-03-14T00:50:59;22.60;61.60
39931;DHT22;26635;-35.248;149.138;2023-03-14T00:53:30;22.70;62.40
39931;DHT22;26635;-35.248;149.138;2023-03-14T00:56:04;22.70;61.50
39931;DHT22;26635;-35.248;149.138;2023-03-14T00:58:34;22.80;61.60
39931;DHT22;26635;-35.248;149.138;2023-03-14T01:01:08;22.70;61.50
39931;DHT22;26635;-35.248;149.138;2023-03-14T01:03:39;22.80;62.00
39931;DHT22;26635;-35.248;149.138;2023-03-14T01:06:16;22.80;62.40
39931;DHT22;26635;-35.248;149.138;2023-03-14T01:08:47;22.70;62.50
39931;DHT22;26635;-35.248;149.138;2023-03-14T01:11:25;22.70;63.10
39931;DHT22;26635;-35.248;149.138;2023-03-14T01:13:56;22.80;62.80
39931;DHT22;26635;-35.248;149.138;2023-03-14T01:16:28;23.00;63.20
39931;DHT22;26635;-35.248;149.138;2023-03-14T01:18:59;23.00;62.30
39931;DHT22;26635;-35.248;149.138;2023-03-14T01:21:32;23.20;62.80
39931;DHT22;26635;-35.248;149.138;2023-03-14T01:24:04;23.40;62.60
39931;DHT22;26635;-35.248;149.138;2023-03-14T01:26:36;23.40;61.60
39931;DHT22;26635;-35.248;149.138;2023-03-14T01:29:06;23.40;61.80
39931;DHT22;26635;-35.248;149.138;2023-03-14T01:31:38;23.40;62.60
39931;DHT22;26635;-35.248;149.138;2023-03-14T01:34:09;23.20;62.60
39931;DHT22;26635;-35.248;149.138;2023-03-14T01:36:39;22.90;62.60
39931;DHT22;26635;-35.248;149.138;2023-03-14T01:39:09;22.80;63.60
39931;DHT22;26635;-35.248;149.138;2023-03-14T01:41:40;22.70;64.30
39931;DHT22;26635;-35.248;149.138;2023-03-14T01:44:14;22.50;64.80
39931;DHT22;26635;-35.248;149.138;2023-03-14T01:46:45;22.50;65.30
39931;DHT22;26635;-35.248;149.138;2023-03-14T01:49:33;22.60;65.40
39931;DHT22;26635;-35.248;149.138;2023-03-14T01:52:15;22.60;65.30
39931;DHT22;26635;-35.248;149.138;2023-03-14T01:55:02;22.60;65.30
39931;DHT22;26635;-35.248;149.138;2023-03-14T01:57:39;22.60;64.80
39931;DHT22;26635;-35.248;149.138;2023-03-14T02:00:18;22.60;65.40
39931;DHT22;26635;-35.248;149.138;2023-03-14T02:02:56;22.60;65.90
39931;DHT22;26635;-35.248;149.138;2023-03-14T02:05:34;22.60;66.10
39931;DHT22;26635;-35.248;149.138;2023-03-14T02:08:08;22.60;65.70
39931;DHT22;26635;-35.248;149.138;2023-03-14T02:10:47;22.60;65.80
39931;DHT22;26635;-35.248;149.138;2023-03-14T02:13:19;22.60;65.60
39931;DHT22;26635;-35.248;149.138;2023-03-14T02:15:50;22.50;64.80
39931;DHT22;26635;-35.248;149.138;2023-03-14T02:18:21;22.60;65.40
39931;DHT22;26635;-35.248;149.138;2023-03-14T02:21:03;22.70;65.50
39931;DHT22;26635;-35.248;149.138;2023-03-14T02:27:06;22.90;65.00
39931;DHT22;26635;-35.248;149.138;2023-03-14T02:29:27;23.00;64.70
39931;DHT22;26635;-35.248;149.138;2023-03-14T02:31:59;22.90;64.30
39931;DHT22;26635;-35.248;149.138;2023-03-14T02:34:29;23.00;64.70
39931;DHT22;26635;-35.248;149.138;2023-03-14T02:37:01;23.00;65.30
39931;DHT22;26635;-35.248;149.138;2023-03-14T02:39:44;23.10;64.60
39931;DHT22;26635;-35.248;149.138;2023-03-14T02:42:15;23.10;64.90
39931;DHT22;26635;-35.248;149.138;2023-03-14T02:47:57;23.20;65.10
39931;DHT22;26635;-35.248;149.138;2023-03-14T02:50:32;23.30;65.20
39931;DHT22;26635;-35.248;149.138;2023-03-14T02:53:03;23.40;65.20
39931;DHT22;26635;-35.248;149.138;2023-03-14T02:55:34;23.50;64.40
39931;DHT22;26635;-35.248;149.138;2023-03-14T02:58:04;23.50;64.40
39931;DHT22;26635;-35.248;149.138;2023-03-14T03:00:34;23.70;63.50
39931;DHT22;26635;-35.248;149.138;2023-03-14T03:03:05;23.90;64.40
39931;DHT22;26635;-35.248;149.138;2023-03-14T03:05:37;24.10;64.10
39931;DHT22;26635;-35.248;149.138;2023-03-14T03:08:08;24.30;63.10
39931;DHT22;26635;-35.248;149.138;2023-03-14T03:10:39;24.50;63.30
39931;DHT22;26635;-35.248;149.138;2023-03-14T03:13:10;24.50;61.50
39931;DHT22;26635;-35.248;149.138;2023-03-14T03:15:40;24.40;62.20
39931;DHT22;26635;-35.248;149.138;2023-03-14T03:18:11;24.50;62.00
39931;DHT22;26635;-35.248;149.138;2023-03-14T03:20:41;24.60;61.70
39931;DHT22;26635;-35.248;149.138;2023-03-14T03:23:12;24.70;62.00
39931;DHT22;26635;-35.248;149.138;2023-03-14T03:25:47;24.60;61.20
39931;DHT22;26635;-35.248;149.138;2023-03-14T03:28:19;24.40;61.80
39931;DHT22;26635;-35.248;149.138;2023-03-14T03:30:51;24.10;61.40
39931;DHT22;26635;-35.248;149.138;2023-03-14T03:33:23;24.00;62.70
39931;DHT22;26635;-35.248;149.138;2023-03-14T03:35:54;23.80;63.00
39931;DHT22;26635;-35.248;149.138;2023-03-14T03:38:24;23.70;62.20
39931;DHT22;26635;-35.248;149.138;2023-03-14T03:41:04;23.70;62.00
39931;DHT22;26635;-35.248;149.138;2023-03-14T03:43:35;23.70;62.60
39931;DHT22;26635;-35.248;149.138;2023-03-14T03:46:06;23.80;62.50
39931;DHT22;26635;-35.248;149.138;2023-03-14T03:48:40;23.90;62.80
39931;DHT22;26635;-35.248;149.138;2023-03-14T03:51:15;24.10;63.70
39931;DHT22;26635;-35.248;149.138;2023-03-14T03:53:46;24.20;63.30
39931;DHT22;26635;-35.248;149.138;2023-03-14T03:56:17;24.30;62.30
39931;DHT22;26635;-35.248;149.138;2023-03-14T03:58:48;24.30;62.80
39931;DHT22;26635;-35.248;149.138;2023-03-14T04:01:19;24.40;63.40
39931;DHT22;26635;-35.248;149.138;2023-03-14T04:03:49;24.60;62.90
39931;DHT22;26635;-35.248;149.138;2023-03-14T04:06:21;24.60;63.00
39931;DHT22;26635;-35.248;149.138;2023-03-14T04:08:54;24.70;62.80
39931;DHT22;26635;-35.248;149.138;2023-03-14T04:11:26;24.60;61.90
39931;DHT22;26635;-35.248;149.138;2023-03-14T04:13:57;24.60;62.40
39931;DHT22;26635;-35.248;149.138;2023-03-14T04:16:28;24.50;62.20
39931;DHT22;26635;-35.248;149.138;2023-03-14T04:19:05;24.60;63.30
39931;DHT22;26635;-35.248;149.138;2023-03-14T04:21:37;24.60;62.40
39931;DHT22;26635;-35.248;149.138;2023-03-14T04:24:15;24.70;61.70
39931;DHT22;26635;-35.248;149.138;2023-03-14T04:26:45;24.80;61.60
39931;DHT22;26635;-35.248;149.138;2023-03-14T04:29:15;24.90;62.20
39931;DHT22;26635;-35.248;149.138;2023-03-14T04:31:46;25.00;60.70
39931;DHT22;26635;-35.248;149.138;2023-03-14T04:34:18;25.10;60.60
39931;DHT22;26635;-35.248;149.138;2023-03-14T04:36:49;25.10;59.80
39931;DHT22;26635;-35.248;149.138;2023-03-14T04:39:21;25.00;59.60
39931;DHT22;26635;-35.248;149.138;2023-03-14T04:41:52;25.00;60.00
39931;DHT22;26635;-35.248;149.138;2023-03-14T04:44:23;24.90;60.60
39931;DHT22;26635;-35.248;149.138;2023-03-14T04:46:54;24.80;60.00
39931;DHT22;26635;-35.248;149.138;2023-03-14T04:49:27;24.60;60.10
39931;DHT22;26635;-35.248;149.138;2023-03-14T04:51:57;24.50;60.20
39931;DHT22;26635;-35.248;149.138;2023-03-14T04:54:27;24.30;60.90
39931;DHT22;26635;-35.248;149.138;2023-03-14T04:56:58;24.20;61.10
39931;DHT22;26635;-35.248;149.138;2023-03-14T04:59:29;23.90;60.60
39931;DHT22;26635;-35.248;149.138;2023-03-14T05:02:02;23.80;61.00
39931;DHT22;26635;-35.248;149.138;2023-03-14T05:04:32;23.80;61.60
39931;DHT22;26635;-35.248;149.138;2023-03-14T05:07:03;23.80;60.90
39931;DHT22;26635;-35.248;149.138;2023-03-14T05:09:34;23.90;61.30
39931;DHT22;26635;-35.248;149.138;2023-03-14T05:12:06;23.90;60.60
39931;DHT22;26635;-35.248;149.138;2023-03-14T05:14:44;23.90;61.40
39931;DHT22;26635;-35.248;149.138;2023-03-14T05:17:14;24.00;60.90
39931;DHT22;26635;-35.248;149.138;2023-03-14T05:19:45;24.10;60.30
39931;DHT22;26635;-35.248;149.138;2023-03-14T05:22:15;24.10;60.00
39931;DHT22;26635;-35.248;149.138;2023-03-14T05:24:45;24.10;61.10
39931;DHT22;26635;-35.248;149.138;2023-03-14T05:27:16;24.10;61.60
39931;DHT22;26635;-35.248;149.138;2023-03-14T05:29:47;24.10;61.90
39931;DHT22;26635;-35.248;149.138;2023-03-14T05:32:18;24.00;61.40
39931;DHT22;26635;-35.248;149.138;2023-03-14T05:34:48;24.00;62.00
39931;DHT22;26635;-35.248;149.138;2023-03-14T05:37:19;24.00;61.50
39931;DHT22;26635;-35.248;149.138;2023-03-14T05:39:50;23.90;62.30
39931;DHT22;26635;-35.248;149.138;2023-03-14T05:42:20;23.80;62.40
39931;DHT22;26635;-35.248;149.138;2023-03-14T05:44:51;23.80;62.30
39931;DHT22;26635;-35.248;149.138;2023-03-14T05:47:21;23.80;62.20
39931;DHT22;26635;-35.248;149.138;2023-03-14T05:49:52;23.70;62.00
39931;DHT22;26635;-35.248;149.138;2023-03-14T05:52:23;23.70;62.70
39931;DHT22;26635;-35.248;149.138;2023-03-14T05:54:53;23.70;61.90
39931;DHT22;26635;-35.248;149.138;2023-03-14T05:57:25;23.70;62.10
39931;DHT22;26635;-35.248;149.138;2023-03-14T05:59:55;23.70;62.10
39931;DHT22;26635;-35.248;149.138;2023-03-14T06:02:26;23.60;62.10
39931;DHT22;26635;-35.248;149.138;2023-03-14T06:04:56;23.70;62.50
39931;DHT22;26635;-35.248;149.138;2023-03-14T06:07:26;23.70;62.70
39931;DHT22;26635;-35.248;149.138;2023-03-14T06:09:57;23.70;62.50
39931;DHT22;26635;-35.248;149.138;2023-03-14T06:12:28;23.60;62.20
39931;DHT22;26635;-35.248;149.138;2023-03-14T06:14:58;23.50;62.90
39931;DHT22;26635;-35.248;149.138;2023-03-14T06:17:28;23.50;63.40
39931;DHT22;26635;-35.248;149.138;2023-03-14T06:19:59;23.40;63.50
39931;DHT22;26635;-35.248;149.138;2023-03-14T06:22:29;23.30;62.90
39931;DHT22;26635;-35.248;149.138;2023-03-14T06:25:01;23.40;63.40
39931;DHT22;26635;-35.248;149.138;2023-03-14T06:27:33;23.20;62.90
39931;DHT22;26635;-35.248;149.138;2023-03-14T06:30:04;23.20;63.00
39931;DHT22;26635;-35.248;149.138;2023-03-14T06:32:36;23.20;63.40
39931;DHT22;26635;-35.248;149.138;2023-03-14T06:35:08;23.20;63.80
39931;DHT22;26635;-35.248;149.138;2023-03-14T06:37:39;23.10;64.90
39931;DHT22;26635;-35.248;149.138;2023-03-14T06:40:12;23.10;66.20
39931;DHT22;26635;-35.248;149.138;2023-03-14T06:42:47;23.00;66.50
39931;DHT22;26635;-35.248;149.138;2023-03-14T06:45:18;22.90;66.80
39931;DHT22;26635;-35.248;149.138;2023-03-14T06:47:50;22.80;67.00
39931;DHT22;26635;-35.248;149.138;2023-03-14T06:50:21;22.80;67.70
39931;DHT22;26635;-35.248;149.138;2023-03-14T06:52:52;22.80;68.20
39931;DHT22;26635;-35.248;149.138;2023-03-14T06:55:22;22.80;68.70
39931;DHT22;26635;-35.248;149.138;2023-03-14T06:57:54;22.70;69.20
39931;DHT22;26635;-35.248;149.138;2023-03-14T07:00:24;22.60;69.80
39931;DHT22;26635;-35.248;149.138;2023-03-14T07:02:54;22.60;70.20
39931;DHT22;26635;-35.248;149.138;2023-03-14T07:05:25;22.40;70.40
39931;DHT22;26635;-35.248;149.138;2023-03-14T07:07:56;22.30;70.60
39931;DHT22;26635;-35.248;149.138;2023-03-14T07:10:27;22.20;70.80
39931;DHT22;26635;-35.248;149.138;2023-03-14T07:12:59;22.10;71.20
39931;DHT22;26635;-35.248;149.138;2023-03-14T07:15:30;22.10;71.50
39931;DHT22;26635;-35.248;149.138;2023-03-14T07:18:01;22.10;71.10
39931;DHT22;26635;-35.248;149.138;2023-03-14T07:20:32;22.00;71.20
39931;DHT22;26635;-35.248;149.138;2023-03-14T07:23:03;21.90;71.00
39931;DHT22;26635;-35.248;149.138;2023-03-14T07:25:34;21.90;71.10
39931;DHT22;26635;-35.248;149.138;2023-03-14T07:28:04;21.80;71.50
39931;DHT22;26635;-35.248;149.138;2023-03-14T07:30:35;21.70;71.50
39931;DHT22;26635;-35.248;149.138;2023-03-14T07:33:06;21.70;71.90
39931;DHT22;26635;-35.248;149.138;2023-03-14T07:35:38;21.60;72.10
39931;DHT22;26635;-35.248;149.138;2023-03-14T07:38:09;21.50;72.40
39931;DHT22;26635;-35.248;149.138;2023-03-14T07:40:40;21.40;72.80
39931;DHT22;26635;-35.248;149.138;2023-03-14T07:43:29;21.40;72.80
39931;DHT22;26635;-35.248;149.138;2023-03-14T07:45:59;21.30;73.20
39931;DHT22;26635;-35.248;149.138;2023-03-14T07:48:30;21.40;73.50
39931;DHT22;26635;-35.248;149.138;2023-03-14T07:51:01;21.40;73.30
39931;DHT22;26635;-35.248;149.138;2023-03-14T07:53:32;21.40;73.70
39931;DHT22;26635;-35.248;149.138;2023-03-14T07:56:02;21.40;73.60
39931;DHT22;26635;-35.248;149.138;2023-03-14T07:58:33;21.40;73.50
39931;DHT22;26635;-35.248;149.138;2023-03-14T08:01:03;21.30;73.30
39931;DHT22;26635;-35.248;149.138;2023-03-14T08:03:33;21.30;73.90
39931;DHT22;26635;-35.248;149.138;2023-03-14T08:06:04;21.30;73.80
39931;DHT22;26635;-35.248;149.138;2023-03-14T08:08:34;21.20;73.90
39931;DHT22;26635;-35.248;149.138;2023-03-14T08:11:07;21.20;74.60
39931;DHT22;26635;-35.248;149.138;2023-03-14T08:13:40;21.10;74.40
39931;DHT22;26635;-35.248;149.138;2023-03-14T08:16:11;21.00;74.50
39931;DHT22;26635;-35.248;149.138;2023-03-14T08:18:41;21.00;75.10
39931;DHT22;26635;-35.248;149.138;2023-03-14T08:21:12;20.90;75.20
39931;DHT22;26635;-35.248;149.138;2023-03-14T08:23:42;20.80;75.40
39931;DHT22;26635;-35.248;149.138;2023-03-14T08:26:12;20.80;75.80
39931;DHT22;26635;-35.248;149.138;2023-03-14T08:28:43;20.70;75.80
39931;DHT22;26635;-35.248;149.138;2023-03-14T08:31:14;20.60;76.30
39931;DHT22;26635;-35.248;149.138;2023-03-14T08:33:46;20.60;76.80
39931;DHT22;26635;-35.248;149.138;2023-03-14T08:36:16;20.50;77.00
39931;DHT22;26635;-35.248;149.138;2023-03-14T08:38:50;20.50;77.20
39931;DHT22;26635;-35.248;149.138;2023-03-14T08:41:21;20.40;77.60
39931;DHT22;26635;-35.248;149.138;2023-03-14T08:43:51;20.40;78.00
39931;DHT22;26635;-35.248;149.138;2023-03-14T08:46:22;20.40;78.00
39931;DHT22;26635;-35.248;149.138;2023-03-14T08:48:52;20.30;78.10
39931;DHT22;26635;-35.248;149.138;2023-03-14T08:51:22;20.30;78.50
39931;DHT22;26635;-35.248;149.138;2023-03-14T08:53:53;20.30;78.50
39931;DHT22;26635;-35.248;149.138;2023-03-14T08:56:23;20.30;78.60
39931;DHT22;26635;-35.248;149.138;2023-03-14T08:58:54;20.20;79.00
39931;DHT22;26635;-35.248;149.138;2023-03-14T09:01:24;20.10;79.20
39931;DHT22;26635;-35.248;149.138;2023-03-14T09:03:56;20.20;79.40
39931;DHT22;26635;-35.248;149.138;2023-03-14T09:06:27;20.10;79.60
39931;DHT22;26635;-35.248;149.138;2023-03-14T09:08:58;20.10;79.70
39931;DHT22;26635;-35.248;149.138;2023-03-14T09:11:28;20.10;79.90
39931;DHT22;26635;-35.248;149.138;2023-03-14T09:13:59;20.10;80.10
39931;DHT22;26635;-35.248;149.138;2023-03-14T09:16:30;20.10;80.20
39931;DHT22;26635;-35.248;149.138;2023-03-14T09:19:01;20.10;80.30
39931;DHT22;26635;-35.248;149.138;2023-03-14T09:21:31;20.00;80.40
39931;DHT22;26635;-35.248;149.138;2023-03-14T09:24:02;20.10;80.60
39931;DHT22;26635;-35.248;149.138;2023-03-14T09:26:34;20.00;80.60
39931;DHT22;26635;-35.248;149.138;2023-03-14T09:29:05;20.00;80.80
39931;DHT22;26635;-35.248;149.138;2023-03-14T09:31:36;20.00;80.90
39931;DHT22;26635;-35.248;149.138;2023-03-14T09:34:06;20.00;80.90
39931;DHT22;26635;-35.248;149.138;2023-03-14T09:36:37;19.90;80.90
39931;DHT22;26635;-35.248;149.138;2023-03-14T09:39:09;19.90;80.80
39931;DHT22;26635;-35.248;149.138;2023-03-14T09:41:46;19.90;80.90
39931;DHT22;26635;-35.248;149.138;2023-03-14T09:44:32;19.90;81.10
39931;DHT22;26635;-35.248;149.138;2023-03-14T09:47:07;19.90;81.20
39931;DHT22;26635;-35.248;149.138;2023-03-14T09:49:42;19.90;81.40
39931;DHT22;26635;-35.248;149.138;2023-03-14T09:55:10;19.80;81.80
39931;DHT22;26635;-35.248;149.138;2023-03-14T09:57:44;19.80;82.00
39931;DHT22;26635;-35.248;149.138;2023-03-14T10:00:19;19.80;82.00
39931;DHT22;26635;-35.248;149.138;2023-03-14T10:03:24;19.80;82.00
39931;DHT22;26635;-35.248;149.138;2023-03-14T10:05:56;19.80;82.00
39931;DHT22;26635;-35.248;149.138;2023-03-14T10:08:27;19.80;82.00
39931;DHT22;26635;-35.248;149.138;2023-03-14T10:10:57;19.80;82.10
39931;DHT22;26635;-35.248;149.138;2023-03-14T10:13:28;19.80;82.30
39931;DHT22;26635;-35.248;149.138;2023-03-14T10:16:03;19.80;82.50
39931;DHT22;26635;-35.248;149.138;2023-03-14T10:18:35;19.70;82.50
39931;DHT22;26635;-35.248;149.138;2023-03-14T10:21:29;19.70;82.60
39931;DHT22;26635;-35.248;149.138;2023-03-14T10:24:30;19.60;82.70
39931;DHT22;26635;-35.248;149.138;2023-03-14T10:27:05;19.60;83.30
39931;DHT22;26635;-35.248;149.138;2023-03-14T10:29:52;19.50;83.20
39931;DHT22;26635;-35.248;149.138;2023-03-14T10:32:39;19.50;83.30
39931;DHT22;26635;-35.248;149.138;2023-03-14T10:37:56;19.40;83.70
39931;DHT22;26635;-35.248;149.138;2023-03-14T10:40:39;19.40;84.00
39931;DHT22;26635;-35.248;149.138;2023-03-14T10:43:18;19.40;83.90
39931;DHT22;26635;-35.248;149.138;2023-03-14T10:48:38;19.40;84.20
39931;DHT22;26635;-35.248;149.138;2023-03-14T10:51:19;19.30;84.20
39931;DHT22;26635;-35.248;149.138;2023-03-14T10:54:01;19.30;84.40
39931;DHT22;26635;-35.248;149.138;2023-03-14T10:56:37;19.20;84.50
39931;DHT22;26635;-35.248;149.138;2023-03-14T10:59:15;19.20;84.70
39931;DHT22;26635;-35.248;149.138;2023-03-14T11:04:47;19.10;85.00
39931;DHT22;26635;-35.248;149.138;2023-03-14T11:07:44;19.10;85.00
39931;DHT22;26635;-35.248;149.138;2023-03-14T11:10:46;19.00;85.00
39931;DHT22;26635;-35.248;149.138;2023-03-14T11:13:31;19.00;85.30
39931;DHT22;26635;-35.248;149.138;2023-03-14T11:21:46;18.80;85.70
39931;DHT22;26635;-35.248;149.138;2023-03-14T11:24:49;18.80;86.00
39931;DHT22;26635;-35.248;149.138;2023-03-14T11:27:42;18.80;86.30
39931;DHT22;26635;-35.248;149.138;2023-03-14T11:30:27;18.80;86.50
39931;DHT22;26635;-35.248;149.138;2023-03-14T11:33:16;18.80;86.50
39931;DHT22;26635;-35.248;149.138;2023-03-14T11:38:29;18.80;86.30
39931;DHT22;26635;-35.248;149.138;2023-03-14T11:41:00;18.80;86.00
39931;DHT22;26635;-35.248;149.138;2023-03-14T11:43:39;18.70;85.90
39931;DHT22;26635;-35.248;149.138;2023-03-14T11:46:22;18.70;85.90
39931;DHT22;26635;-35.248;149.138;2023-03-14T11:51:39;18.60;86.50
39931;DHT22;26635;-35.248;149.138;2023-03-14T11:54:29;18.60;86.50
39931;DHT22;26635;-35.248;149.138;2023-03-14T11:57:19;18.60;86.60
39931;DHT22;26635;-35.248;149.138;2023-03-14T12:10:43;18.60;86.90
39931;DHT22;26635;-35.248;149.138;2023-03-14T12:13:17;18.60;86.90
39931;DHT22;26635;-35.248;149.138;2023-03-14T12:15:58;18.60;86.90
39931;DHT22;26635;-35.248;149.138;2023-03-14T12:18:32;18.60;86.60
39931;DHT22;26635;-35.248;149.138;2023-03-14T12:21:09;18.60;86.70
39931;DHT22;26635;-35.248;149.138;2023-03-14T12:26:24;18.50;86.50
39931;DHT22;26635;-35.248;149.138;2023-03-14T12:39:55;18.30;87.30
39931;DHT22;26635;-35.248;149.138;2023-03-14T12:47:50;18.20;88.00
39931;DHT22;26635;-35.248;149.138;2023-03-14T12:50:34;18.20;87.80
39931;DHT22;26635;-35.248;149.138;2023-03-14T13:04:46;18.00;88.20
39931;DHT22;26635;-35.248;149.138;2023-03-14T13:10:24;18.10;88.70
39931;DHT22;26635;-35.248;149.138;2023-03-14T13:15:46;18.10;88.90
39931;DHT22;26635;-35.248;149.138;2023-03-14T13:18:40;18.10;88.90
39931;DHT22;26635;-35.248;149.138;2023-03-14T13:21:19;18.20;88.90
39931;DHT22;26635;-35.248;149.138;2023-03-14T13:23:59;18.20;88.90
39931;DHT22;26635;-35.248;149.138;2023-03-14T13:26:43;18.20;89.20
39931;DHT22;26635;-35.248;149.138;2023-03-14T13:29:18;18.20;89.00
39931;DHT22;26635;-35.248;149.138;2023-03-14T13:32:22;18.30;89.00
39931;DHT22;26635;-35.248;149.138;2023-03-14T13:34:59;18.30;88.80
39931;DHT22;26635;-35.248;149.138;2023-03-14T13:37:30;18.40;88.90
39931;DHT22;26635;-35.248;149.138;2023-03-14T13:40:01;18.40;88.90
39931;DHT22;26635;-35.248;149.138;2023-03-14T13:42:31;18.40;88.50
39931;DHT22;26635;-35.248;149.138;2023-03-14T13:45:03;18.40;88.60
39931;DHT22;26635;-35.248;149.138;2023-03-14T13:47:39;18.40;88.40
39931;DHT22;26635;-35.248;149.138;2023-03-14T13:50:16;18.50;88.50
39931;DHT22;26635;-35.248;149.138;2023-03-14T13:52:55;18.50;88.40
39931;DHT22;26635;-35.248;149.138;2023-03-14T13:55:27;18.50;88.20
39931;DHT22;26635;-35.248;149.138;2023-03-14T13:57:59;18.50;88.20
39931;DHT22;26635;-35.248;149.138;2023-03-14T14:00:30;18.50;88.10
39931;DHT22;26635;-35.248;149.138;2023-03-14T14:03:01;18.50;87.90
39931;DHT22;26635;-35.248;149.138;2023-03-14T14:05:32;18.50;87.90
39931;DHT22;26635;-35.248;149.138;2023-03-14T14:08:04;18.50;88.00
39931;DHT22;26635;-35.248;149.138;2023-03-14T14:10:37;18.50;87.90
39931;DHT22;26635;-35.248;149.138;2023-03-14T14:13:14;18.50;87.90
39931;DHT22;26635;-35.248;149.138;2023-03-14T14:15:51;18.50;87.90
39931;DHT22;26635;-35.248;149.138;2023-03-14T14:18:25;18.50;87.80
39931;DHT22;26635;-35.248;149.138;2023-03-14T14:20:58;18.50;87.70
39931;DHT22;26635;-35.248;149.138;2023-03-14T14:23:29;18.50;87.70
39931;DHT22;26635;-35.248;149.138;2023-03-14T14:26:01;18.50;87.60
39931;DHT22;26635;-35.248;149.138;2023-03-14T14:28:34;18.60;87.80
39931;DHT22;26635;-35.248;149.138;2023-03-14T14:33:52;18.50;87.80
39931;DHT22;26635;-35.248;149.138;2023-03-14T14:41:52;18.50;88.00
39931;DHT22;26635;-35.248;149.138;2023-03-14T14:44:34;18.40;88.10
39931;DHT22;26635;-35.248;149.138;2023-03-14T14:47:06;18.40;88.20
39931;DHT22;26635;-35.248;149.138;2023-03-14T14:49:36;18.40;88.40
39931;DHT22;26635;-35.248;149.138;2023-03-14T14:52:14;18.30;88.40
39931;DHT22;26635;-35.248;149.138;2023-03-14T14:54:47;18.30;88.40
39931;DHT22;26635;-35.248;149.138;2023-03-14T14:57:37;18.20;88.20
39931;DHT22;26635;-35.248;149.138;2023-03-14T15:00:19;18.20;88.10
39931;DHT22;26635;-35.248;149.138;2023-03-14T15:02:54;18.20;88.60
39931;DHT22;26635;-35.248;149.138;2023-03-14T15:05:27;18.10;88.40
39931;DHT22;26635;-35.248;149.138;2023-03-14T15:08:00;18.10;88.60
39931;DHT22;26635;-35.248;149.138;2023-03-14T15:10:31;18.10;88.50
39931;DHT22;26635;-35.248;149.138;2023-03-14T15:13:01;18.00;88.60
39931;DHT22;26635;-35.248;149.138;2023-03-14T15:15:32;18.00;89.00
39931;DHT22;26635;-35.248;149.138;2023-03-14T15:18:02;18.00;88.80
39931;DHT22;26635;-35.248;149.138;2023-03-14T15:20:32;17.90;88.60
39931;DHT22;26635;-35.248;149.138;2023-03-14T15:23:04;17.90;88.80
39931;DHT22;26635;-35.248;149.138;2023-03-14T15:25:35;17.80;88.80
39931;DHT22;26635;-35.248;149.138;2023-03-14T15:28:27;17.80;89.00
39931;DHT22;26635;-35.248;149.138;2023-03-14T15:30:59;17.70;89.00
39931;DHT22;26635;-35.248;149.138;2023-03-14T15:33:29;17.70;89.50
39931;DHT22;26635;-35.248;149.138;2023-03-14T15:35:59;17.70;89.70
39931;DHT22;26635;-35.248;149.138;2023-03-14T15:38:30;17.60;89.60
39931;DHT22;26635;-35.248;149.138;2023-03-14T15:41:00;17.60;89.70
39931;DHT22;26635;-35.248;149.138;2023-03-14T15:43:31;17.60;89.80
39931;DHT22;26635;-35.248;149.138;2023-03-14T15:46:01;17.60;90.00
39931;DHT22;26635;-35.248;149.138;2023-03-14T15:48:32;17.60;89.90
39931;DHT22;26635;-35.248;149.138;2023-03-14T15:51:02;17.60;89.70
39931;DHT22;26635;-35.248;149.138;2023-03-14T15:53:33;17.50;89.90
39931;DHT22;26635;-35.248;149.138;2023-03-14T15:56:12;17.50;89.70
39931;DHT22;26635;-35.248;149.138;2023-03-14T15:58:45;17.50;89.80
39931;DHT22;26635;-35.248;149.138;2023-03-14T16:01:20;17.50;90.10
39931;DHT22;26635;-35.248;149.138;2023-03-14T16:03:51;17.40;90.10
39931;DHT22;26635;-35.248;149.138;2023-03-14T16:06:22;17.40;90.20
39931;DHT22;26635;-35.248;149.138;2023-03-14T16:08:53;17.30;90.10
39931;DHT22;26635;-35.248;149.138;2023-03-14T16:11:24;17.30;90.20
39931;DHT22;26635;-35.248;149.138;2023-03-14T16:13:55;17.20;90.20
39931;DHT22;26635;-35.248;149.138;2023-03-14T16:16:25;17.20;90.50
39931;DHT22;26635;-35.248;149.138;2023-03-14T16:18:56;17.10;90.40
39931;DHT22;26635;-35.248;149.138;2023-03-14T16:21:27;17.10;90.40
39931;DHT22;26635;-35.248;149.138;2023-03-14T16:23:58;17.10;90.60
39931;DHT22;26635;-35.248;149.138;2023-03-14T16:26:37;17.20;90.80
39931;DHT22;26635;-35.248;149.138;2023-03-14T16:29:07;17.20;91.00
39931;DHT22;26635;-35.248;149.138;2023-03-14T16:31:38;17.20;90.90
39931;DHT22;26635;-35.248;149.138;2023-03-14T16:34:12;17.20;91.00
39931;DHT22;26635;-35.248;149.138;2023-03-14T16:36:43;17.30;91.10
39931;DHT22;26635;-35.248;149.138;2023-03-14T16:39:14;17.30;91.10
39931;DHT22;26635;-35.248;149.138;2023-03-14T16:41:44;17.30;91.10
39931;DHT22;26635;-35.248;149.138;2023-03-14T16:44:15;17.40;91.00
39931;DHT22;26635;-35.248;149.138;2023-03-14T16:46:45;17.40;91.10
39931;DHT22;26635;-35.248;149.138;2023-03-14T16:49:16;17.40;90.90